Etusivu
METAR-TAF:

METAR-TAF

Lentoasemat :

Camp Mabry

Austin, Texas, Yhdysvallat

Leveyspiiri: 30-19N, Pituuspiiri: 097-46W, korkeus merenpinnasta: 200 m

Tämänhetkinen sää

Tämä raportti tehtiin 18 minuuttia sitten, kello 18.51 UTC
Tuuli 7 kn pohjoisesta
Lämpötila -1°C
Kosteus 100%
Ilmanpaine 1026 hPa
Näkyvyys: 3.2 km
Pilvistä 900 ft:n korkeudessa
(heikkoa) jäätävää, sadetta, utua

METAR: KATT 011851Z AUTO 35007KT 2SM -FZRA BR OVC009 M01/M01 A3031 RMK AO2 SLP276 P0002 I1003 T10061011

Aika: 13:09 (19:09 UTC)


TAF: puuttuu

Säähavainnot ja -ennusteet yli 4000 lentoasemalta (METAR- ja TAF-raportit).

Käytössä olevat sääasemat on merkitty karttaan keltaisilla ja punaisilla pisteillä.

Aseta hiiri pisteen päälle nähdäksesi sääaseman nimen.

Klikkaa sitten nähdäksesi säähavainnot ja -ennusteet.

Kartan vaihtaminen: klikkaa mustalla rastilla varustettuja vihreitä pisteitä, niin voit zoomata sisään; viivalla varustettua vihreää pistettä, niin voit zoomata ulos tai vihreitä nuolia, niin pääset viereisille kartoille.


METAR-TAF: